Pagrindinis puslapis
METAR-TAF:

METAR-TAF

Oro uostai :

Bardufoss, Norvegija

platuma: 69-04N, ilguma: 018-32E, Aukštis: 7 m

Dabartinis oras

Ataskaita buvo paskelbta 33 minutes, ne 20:20 UTC
Vėjas 3 kt iš Vakarų/Šiaurės Vakarų
Temperatūra 8°C
Drėgmė 76%
Slėgis 1012 hPa
Matomumas 10 km arba daugiau
Mažai debesys ne aukštis 3000 ft
Su prošvaistėmis ne aukštis 8000 ft

METAR: ENDU 222020Z 30003KT 9999 FEW030 BKN080 08/04 Q1012 RMK WIND 1100FT 03002KT WIND 2200FT 08004KT

Laikas: 22:53 (20:53 UTC)

Prognozė

Prognozė galioja nuo 22 metu 18 UTC su 23 metu 18 UTC
Vėjas 5 kt iš Vakarų/Šiaurės Vakarų
Matomumas 10 km arba daugiau
Išsisklaidę debesys ne aukštis 4000 ft
Su prošvaistėmis ne aukštis 6000 ft
Laikinai
nuo 23 metu 01 UTC su 23 metu 08 UTC
Matomumas: 4500 m
Su prošvaistėmis ne aukštis 1400 ft
Mažai debesys ne aukštis 3000 ft, Liūtiniai kamuoliniai debesys.
lietus

TAF: ENDU 2218/2318 30005KT 9999 SCT040 BKN060 TEMPO 2301/2308 4500 SHRA BKN014 FEW030CB

Orai ataskaitas ir orų prognozės (METAR, TAF).

turimą stotys yra geltonos ir raudonos taškus žemėlapyje.

Perkelti pele per norėdami pamatyti stoties vardą.

Tada spustelėkite, norėdami matyti oro stebėjimo ir prognozės.

Norėdami pakeisti žemėlapį: spustelėkite ant žalios mygtukų su juodo kryžiaus žemyn,; žalią mygtuką su brūkšneliu, jei norite nutolinti; arba žalių rodyklių gretimoms žemėlapius.


METAR-TAF: